Time;durP1;ratioP1;P1;durP2;ratioP2;P2;SDS_P1;SDS_P2;PMS_P1;PMS_P2;Temp;Humidity;BMP_temperature;BMP_pressure;BME280_temperature;BME280_humidity;BME280_pressure;Samples;Min_cycle;Max_cycle;Signal;HPM_P1;HPM_P2
2021/05/15 00:02:24;;;;;;;32.17;14.30;;;;;;;;;;4946535;28;20157;-83
2021/05/15 00:04:51;;;;;;;33.67;13.75;;;;;;;;;;4952055;28;20069;-82
2021/05/15 00:07:17;;;;;;;43.38;14.90;;;;;;;;;;4953119;28;20047;-82
2021/05/15 00:09:43;;;;;;;30.73;13.65;;;;;;;;;;4951340;28;20476;-82
2021/05/15 00:12:15;;;;;;;37.78;14.65;;;;;;;;;;4952783;28;20043;-82
2021/05/15 00:14:41;;;;;;;37.80;14.95;;;;;;;;;;4954882;28;20114;-82
2021/05/15 00:17:07;;;;;;;39.72;14.25;;;;;;;;;;4951462;28;20047;-83
2021/05/15 00:19:36;;;;;;;31.63;13.98;;;;;;;;;;4951411;29;20043;-83
2021/05/15 00:22:02;;;;;;;36.53;14.10;;;;;;;;;;4951692;28;20039;-83
2021/05/15 00:24:28;;;;;;;43.75;15.60;;;;;;;;;;4951920;28;20118;-82
2021/05/15 00:26:56;;;;;;;33.10;13.57;;;;;;;;;;4952367;29;20074;-82
2021/05/15 00:29:22;;;;;;;36.35;13.82;;;;;;;;;;4952883;29;20035;-82
2021/05/15 00:31:48;;;;;;;44.33;15.77;;;;;;;;;;4952945;29;20070;-83
2021/05/15 00:34:14;;;;;;;36.65;16.10;;;;;;;;;;4955483;28;20042;-83
2021/05/15 00:36:42;;;;;;;33.15;12.68;;;;;;;;;;4955852;29;20671;-83
2021/05/15 00:39:08;;;;;;;38.45;14.45;;;;;;;;;;4952832;28;20027;-83
2021/05/15 00:41:37;;;;;;;38.75;14.95;;;;;;;;;;4955947;28;20085;-83
2021/05/15 00:44:16;;;;;;;45.17;15.20;;;;;;;;;;4965049;28;20042;-83
2021/05/15 00:46:44;;;;;;;39.58;15.45;;;;;;;;;;4957154;28;20117;-83
2021/05/15 00:49:10;;;;;;;35.90;15.25;;;;;;;;;;4944708;29;20090;-83
2021/05/15 00:51:37;;;;;;;38.80;14.63;;;;;;;;;;4936521;29;20122;-83
2021/05/15 00:54:04;;;;;;;40.05;15.70;;;;;;;;;;4938520;29;20506;-83
2021/05/15 00:56:31;;;;;;;41.80;14.45;;;;;;;;;;4964626;28;20042;-83
2021/05/15 00:58:58;;;;;;;46.90;15.73;;;;;;;;;;4959323;28;20057;-82
2021/05/15 01:01:24;;;;;;;40.70;15.05;;;;;;;;;;4955639;29;20035;-83
2021/05/15 01:03:51;;;;;;;35.72;15.02;;;;;;;;;;4955871;29;20067;-83
2021/05/15 01:06:17;;;;;;;32.72;14.90;;;;;;;;;;4957299;28;20027;-83
2021/05/15 01:08:46;;;;;;;42.88;14.70;;;;;;;;;;4954900;28;20536;-83
2021/05/15 01:11:16;;;;;;;34.78;14.45;;;;;;;;;;4963912;28;20042;-83
2021/05/15 01:13:57;;;;;;;39.95;14.23;;;;;;;;;;4956098;28;20748;-83
2021/05/15 01:16:23;;;;;;;38.08;15.25;;;;;;;;;;4956385;28;20032;-82
2021/05/15 01:18:49;;;;;;;47.05;14.88;;;;;;;;;;4945697;29;20071;-82
2021/05/15 01:21:15;;;;;;;37.15;15.52;;;;;;;;;;4935056;29;20039;-82
2021/05/15 01:23:41;;;;;;;37.88;15.40;;;;;;;;;;4938260;29;20047;-82
2021/05/15 01:26:21;;;;;;;41.92;15.30;;;;;;;;;;4946820;28;20077;-83
2021/05/15 01:28:48;;;;;;;41.20;15.82;;;;;;;;;;4951785;28;20526;-82
2021/05/15 01:31:27;;;;;;;45.00;16.85;;;;;;;;;;4956327;29;20782;-82
2021/05/15 01:33:54;;;;;;;45.25;16.20;;;;;;;;;;4951171;29;20556;-83
2021/05/15 01:36:20;;;;;;;42.40;15.60;;;;;;;;;;4952232;28;20027;-83
2021/05/15 01:38:46;;;;;;;44.30;17.02;;;;;;;;;;4955923;28;20044;-84
2021/05/15 01:41:13;;;;;;;46.35;17.33;;;;;;;;;;4936781;29;20039;-83
2021/05/15 01:43:39;;;;;;;48.50;17.33;;;;;;;;;;4950332;28;20042;-83
2021/05/15 01:46:06;;;;;;;42.20;17.63;;;;;;;;;;4961913;28;20571;-82
2021/05/15 01:48:33;;;;;;;47.58;18.42;;;;;;;;;;4953499;28;20487;-82
2021/05/15 01:51:01;;;;;;;49.40;17.33;;;;;;;;;;4956230;28;20039;-82
2021/05/15 01:53:28;;;;;;;43.58;18.05;;;;;;;;;;4955577;28;20031;-83
2021/05/15 01:55:55;;;;;;;48.33;19.08;;;;;;;;;;4948596;28;20532;-82
2021/05/15 01:58:21;;;;;;;46.78;17.73;;;;;;;;;;4964558;28;20042;-82
2021/05/15 02:00:47;;;;;;;50.38;18.95;;;;;;;;;;4954775;29;20048;-82
2021/05/15 02:03:13;;;;;;;48.15;19.25;;;;;;;;;;4954597;29;20133;-83
2021/05/15 02:05:39;;;;;;;44.65;19.25;;;;;;;;;;4944059;29;20042;-82
2021/05/15 02:08:05;;;;;;;47.42;18.23;;;;;;;;;;4954319;29;20031;-83
2021/05/15 02:10:38;;;;;;;51.03;20.50;;;;;;;;;;4954936;28;20035;-82
2021/05/15 02:13:04;;;;;;;48.95;18.23;;;;;;;;;;4953274;28;20031;-83
2021/05/15 02:15:30;;;;;;;45.05;18.33;;;;;;;;;;4951623;28;20028;-83
2021/05/15 02:17:58;;;;;;;52.42;19.33;;;;;;;;;;4953443;28;20059;-83
2021/05/15 02:20:24;;;;;;;48.45;19.08;;;;;;;;;;4954241;29;20404;-83
2021/05/15 02:22:51;;;;;;;41.60;18.52;;;;;;;;;;4953013;29;20035;-83
2021/05/15 02:25:18;;;;;;;49.95;18.20;;;;;;;;;;4953051;28;20039;-83
2021/05/15 02:27:44;;;;;;;44.45;17.08;;;;;;;;;;4950402;28;20028;-84
2021/05/15 02:30:11;;;;;;;45.42;17.98;;;;;;;;;;4955018;28;20049;-82
2021/05/15 02:32:38;;;;;;;43.83;17.70;;;;;;;;;;4955047;28;20069;-82
2021/05/15 02:35:05;;;;;;;44.83;17.90;;;;;;;;;;4954182;29;20042;-82
2021/05/15 02:37:31;;;;;;;43.65;17.92;;;;;;;;;;4953953;29;20038;-82
2021/05/15 02:39:58;;;;;;;46.03;17.88;;;;;;;;;;4953747;28;20134;-82
2021/05/15 02:42:24;;;;;;;48.90;18.85;;;;;;;;;;4945343;28;20035;-82
2021/05/15 02:44:52;;;;;;;42.75;18.52;;;;;;;;;;4952878;28;20122;-82
2021/05/15 02:47:19;;;;;;;43.17;18.05;;;;;;;;;;4952539;28;20035;-82
2021/05/15 02:49:45;;;;;;;46.35;18.15;;;;;;;;;;4953034;28;20035;-83
2021/05/15 02:52:11;;;;;;;50.90;18.98;;;;;;;;;;4955301;28;20035;-83
2021/05/15 02:54:37;;;;;;;47.63;18.90;;;;;;;;;;4951952;29;20068;-82
2021/05/15 02:57:03;;;;;;;50.10;17.88;;;;;;;;;;4951139;28;20400;-83
2021/05/15 02:59:29;;;;;;;46.22;18.65;;;;;;;;;;4953735;29;20027;-83
2021/05/15 03:01:55;;;;;;;44.85;17.20;;;;;;;;;;4953890;29;20396;-83
2021/05/15 03:04:21;;;;;;;43.72;18.50;;;;;;;;;;4938928;29;20035;-83
2021/05/15 03:06:47;;;;;;;53.15;18.85;;;;;;;;;;4935453;29;20404;-82
2021/05/15 03:09:13;;;;;;;53.42;19.23;;;;;;;;;;4933958;29;20039;-83
2021/05/15 03:11:39;;;;;;;53.85;20.83;;;;;;;;;;4936652;29;20063;-83
2021/05/15 03:14:06;;;;;;;46.83;18.33;;;;;;;;;;4957988;28;20058;-84
2021/05/15 03:16:34;;;;;;;46.47;19.85;;;;;;;;;;4949279;28;20035;-83
2021/05/15 03:19:00;;;;;;;46.88;19.88;;;;;;;;;;4951628;28;20054;-83
2021/05/15 03:21:26;;;;;;;41.40;17.65;;;;;;;;;;4948814;28;20031;-82
2021/05/15 03:23:52;;;;;;;41.22;19.25;;;;;;;;;;4944092;28;20118;-83
2021/05/15 03:26:18;;;;;;;44.67;19.15;;;;;;;;;;4953080;28;20717;-83
2021/05/15 03:28:44;;;;;;;41.30;17.15;;;;;;;;;;4953381;29;20050;-84
2021/05/15 03:31:13;;;;;;;49.67;18.52;;;;;;;;;;4953296;29;20412;-83
2021/05/15 03:33:39;;;;;;;38.97;17.20;;;;;;;;;;4953109;29;20038;-83
2021/05/15 03:36:05;;;;;;;47.22;17.98;;;;;;;;;;4951256;28;20039;-82
2021/05/15 03:38:32;;;;;;;44.20;17.80;;;;;;;;;;4961942;28;20043;-83
2021/05/15 03:41:04;;;;;;;47.85;20.85;;;;;;;;;;4959874;28;20046;-82
2021/05/15 03:43:30;;;;;;;47.05;19.65;;;;;;;;;;4939864;28;20468;-83
2021/05/15 03:45:56;;;;;;;44.72;19.73;;;;;;;;;;4968393;28;20093;-83
2021/05/15 03:48:23;;;;;;;49.72;19.98;;;;;;;;;;4970947;28;20035;-83
2021/05/15 03:50:50;;;;;;;45.65;20.23;;;;;;;;;;4963348;28;20038;-82
2021/05/15 03:53:19;;;;;;;49.10;20.85;;;;;;;;;;4964214;28;20502;-82
2021/05/15 03:55:54;;;;;;;52.35;22.33;;;;;;;;;;4970916;28;20664;-81
2021/05/15 03:58:20;;;;;;;51.22;21.50;;;;;;;;;;4956936;28;20027;-82
2021/05/15 04:00:46;;;;;;;56.72;22.00;;;;;;;;;;4954644;28;20046;-81
2021/05/15 04:03:12;;;;;;;56.58;22.55;;;;;;;;;;4971687;28;20035;-82
2021/05/15 04:05:38;;;;;;;57.95;21.67;;;;;;;;;;4972697;28;20483;-82
2021/05/15 04:08:04;;;;;;;66.07;24.45;;;;;;;;;;4972001;28;20097;-81
2021/05/15 04:10:30;;;;;;;56.22;23.45;;;;;;;;;;4963569;28;20487;-81
2021/05/15 04:18:10;;;;;;;58.83;24.73;;;;;;;;;;4976755;28;20074;-82
2021/05/15 04:20:37;;;;;;;61.03;23.85;;;;;;;;;;4958741;28;20038;-81
2021/05/15 04:23:03;;;;;;;58.63;25.67;;;;;;;;;;4966651;28;20038;-81
2021/05/15 04:25:29;;;;;;;66.60;24.55;;;;;;;;;;4968480;28;20039;-80
2021/05/15 04:27:56;;;;;;;70.45;25.92;;;;;;;;;;4964453;28;20039;-81
2021/05/15 04:30:22;;;;;;;63.58;24.92;;;;;;;;;;4937312;28;20042;-81
2021/05/15 04:32:53;;;;;;;60.85;24.92;;;;;;;;;;4936074;29;20389;-81
2021/05/15 04:35:20;;;;;;;75.60;27.33;;;;;;;;;;4951024;29;20077;-81
2021/05/15 04:37:46;;;;;;;62.67;26.20;;;;;;;;;;4955104;29;20042;-81
2021/05/15 04:40:12;;;;;;;69.13;26.20;;;;;;;;;;4943063;29;20070;-82
2021/05/15 04:42:38;;;;;;;66.05;25.35;;;;;;;;;;4954651;28;20392;-82
2021/05/15 04:45:09;;;;;;;71.53;27.50;;;;;;;;;;4966688;28;20137;-82
2021/05/15 04:47:35;;;;;;;68.40;26.23;;;;;;;;;;4974082;28;20039;-81
2021/05/15 04:50:05;;;;;;;70.45;27.13;;;;;;;;;;4960407;28;20073;-80
2021/05/15 04:52:31;;;;;;;69.10;26.90;;;;;;;;;;4960795;28;20089;-81
2021/05/15 04:54:58;;;;;;;68.03;26.35;;;;;;;;;;4958230;28;20035;-80
2021/05/15 04:57:24;;;;;;;66.28;25.90;;;;;;;;;;4974212;28;20502;-81
2021/05/15 04:59:55;;;;;;;78.13;28.02;;;;;;;;;;4959769;28;20027;-81
2021/05/15 05:02:21;;;;;;;65.25;26.50;;;;;;;;;;4961991;28;20499;-81
2021/05/15 05:04:47;;;;;;;69.40;26.77;;;;;;;;;;4951587;28;20167;-81
2021/05/15 05:07:13;;;;;;;75.80;27.92;;;;;;;;;;4943734;28;20053;-81
2021/05/15 05:09:39;;;;;;;77.20;29.23;;;;;;;;;;4935453;29;20665;-81
2021/05/15 05:12:08;;;;;;;67.43;26.45;;;;;;;;;;4939607;28;20045;-81
2021/05/15 05:14:38;;;;;;;71.55;28.48;;;;;;;;;;4965790;28;20085;-81
2021/05/15 05:17:04;;;;;;;80.00;29.08;;;;;;;;;;4967613;28;20043;-81
2021/05/15 05:19:32;;;;;;;78.80;29.55;;;;;;;;;;4937553;28;20031;-81
2021/05/15 05:22:03;;;;;;;75.13;29.38;;;;;;;;;;4960737;28;20043;-82
2021/05/15 05:24:32;;;;;;;75.28;29.88;;;;;;;;;;4955008;29;20035;-81
2021/05/15 05:27:00;;;;;;;74.15;30.05;;;;;;;;;;4960892;28;20031;-81
2021/05/15 05:29:26;;;;;;;80.53;31.98;;;;;;;;;;4948606;28;20039;-81
2021/05/15 05:31:53;;;;;;;79.03;28.95;;;;;;;;;;4949698;29;20039;-82
2021/05/15 05:34:20;;;;;;;87.68;32.55;;;;;;;;;;4954583;29;20031;-81
2021/05/15 05:36:47;;;;;;;94.28;33.15;;;;;;;;;;4939823;28;20059;-81
2021/05/15 05:39:19;;;;;;;75.75;27.27;;;;;;;;;;4931426;29;20078;-81
2021/05/15 05:41:48;;;;;;;81.97;29.58;;;;;;;;;;4935250;29;20036;-81
2021/05/15 05:44:15;;;;;;;68.38;27.27;;;;;;;;;;4949754;28;20549;-80
2021/05/15 05:46:41;;;;;;;73.97;30.05;;;;;;;;;;4950561;28;20087;-81
2021/05/15 05:49:07;;;;;;;76.35;29.55;;;;;;;;;;4932239;29;20040;-81
2021/05/15 05:51:33;;;;;;;87.82;30.85;;;;;;;;;;4928539;29;20039;-81
2021/05/15 05:53:59;;;;;;;83.32;32.30;;;;;;;;;;4935374;29;20079;-81
2021/05/15 05:56:26;;;;;;;79.88;32.13;;;;;;;;;;4946180;28;20784;-81
2021/05/15 05:58:52;;;;;;;92.45;32.33;;;;;;;;;;4953699;28;20503;-80
2021/05/15 06:01:18;;;;;;;81.68;31.63;;;;;;;;;;4942646;28;20062;-80
2021/05/15 06:03:47;;;;;;;84.72;32.05;;;;;;;;;;4958963;28;20067;-80
2021/05/15 06:06:13;;;;;;;79.32;28.65;;;;;;;;;;4943858;28;20071;-80
2021/05/15 06:08:39;;;;;;;79.80;33.05;;;;;;;;;;4933276;29;20405;-80
2021/05/15 06:11:07;;;;;;;86.32;31.73;;;;;;;;;;4935285;29;20090;-80
2021/05/15 06:13:36;;;;;;;83.40;30.70;;;;;;;;;;4954651;28;20083;-81
2021/05/15 06:16:02;;;;;;;94.47;34.10;;;;;;;;;;4954608;28;20466;-81
2021/05/15 06:18:28;;;;;;;79.07;31.58;;;;;;;;;;4954116;29;20049;-80
2021/05/15 06:20:54;;;;;;;78.80;29.90;;;;;;;;;;4939604;28;20078;-80
2021/05/15 06:23:20;;;;;;;78.68;29.15;;;;;;;;;;4935118;29;20036;-80
2021/05/15 06:25:49;;;;;;;81.97;31.05;;;;;;;;;;4950774;28;20051;-81
2021/05/15 06:28:15;;;;;;;86.22;31.67;;;;;;;;;;4934221;29;20036;-81
2021/05/15 06:30:50;;;;;;;82.22;30.83;;;;;;;;;;4932659;28;20038;-79
2021/05/15 06:33:16;;;;;;;89.95;31.95;;;;;;;;;;4948859;28;20055;-80
2021/05/15 06:35:42;;;;;;;87.95;30.58;;;;;;;;;;4946322;28;20073;-81
2021/05/15 06:38:09;;;;;;;78.22;29.58;;;;;;;;;;4951823;29;20038;-80
2021/05/15 06:40:35;;;;;;;82.38;29.58;;;;;;;;;;4944797;29;20031;-80
2021/05/15 06:43:01;;;;;;;79.90;31.65;;;;;;;;;;4948092;28;20535;-81
2021/05/15 06:45:27;;;;;;;90.18;32.67;;;;;;;;;;4951441;28;20046;-80
2021/05/15 06:47:54;;;;;;;81.65;31.27;;;;;;;;;;4953835;28;20047;-80
2021/05/15 06:50:20;;;;;;;74.82;29.98;;;;;;;;;;4935248;28;20134;-80
2021/05/15 06:52:50;;;;;;;81.50;32.20;;;;;;;;;;4933254;29;20046;-80
2021/05/15 06:55:28;;;;;;;79.07;31.30;;;;;;;;;;4946299;28;20042;-80
2021/05/15 06:58:08;;;;;;;79.35;29.38;;;;;;;;;;4960255;28;20049;-80
2021/05/15 07:00:35;;;;;;;87.07;31.45;;;;;;;;;;4964984;28;20039;-80
2021/05/15 07:03:02;;;;;;;83.65;30.77;;;;;;;;;;4954243;28;20039;-81
2021/05/15 07:05:28;;;;;;;75.38;28.73;;;;;;;;;;4953607;29;20118;-81
2021/05/15 07:07:54;;;;;;;66.90;26.35;;;;;;;;;;4954015;28;20171;-81
2021/05/15 07:10:22;;;;;;;73.63;28.13;;;;;;;;;;4928290;28;20028;-81
2021/05/15 07:12:48;;;;;;;62.00;25.60;;;;;;;;;;4945730;28;20035;-81
2021/05/15 07:15:14;;;;;;;60.45;26.13;;;;;;;;;;4965244;28;20047;-82
2021/05/15 07:17:40;;;;;;;65.78;26.60;;;;;;;;;;4973003;28;20039;-81
2021/05/15 07:20:07;;;;;;;68.13;25.25;;;;;;;;;;4962683;28;20034;-81
2021/05/15 07:22:36;;;;;;;61.53;24.73;;;;;;;;;;4959048;28;20127;-81
2021/05/15 07:25:02;;;;;;;63.20;25.58;;;;;;;;;;4950055;28;20468;-81
2021/05/15 07:27:29;;;;;;;65.20;25.40;;;;;;;;;;4958664;28;20447;-81
2021/05/15 07:29:55;;;;;;;70.43;26.58;;;;;;;;;;4925192;29;20046;-81
2021/05/15 07:32:24;;;;;;;66.03;26.60;;;;;;;;;;4953024;29;20039;-81
2021/05/15 07:34:51;;;;;;;65.38;26.95;;;;;;;;;;4948963;29;20087;-81
2021/05/15 07:37:17;;;;;;;65.22;25.17;;;;;;;;;;4937008;29;20047;-81
2021/05/15 07:39:44;;;;;;;61.75;26.15;;;;;;;;;;4940187;28;20581;-81
2021/05/15 07:42:10;;;;;;;64.65;26.35;;;;;;;;;;4967499;28;20054;-80
2021/05/15 07:44:38;;;;;;;69.00;27.67;;;;;;;;;;4946818;28;20135;-80
2021/05/15 07:47:05;;;;;;;63.45;26.70;;;;;;;;;;4935707;29;20035;-80
2021/05/15 07:49:32;;;;;;;68.18;26.50;;;;;;;;;;4945346;29;20070;-80
2021/05/15 07:51:58;;;;;;;61.65;25.20;;;;;;;;;;4932795;29;20062;-81
2021/05/15 07:54:25;;;;;;;63.10;25.77;;;;;;;;;;4934714;29;20130;-80
2021/05/15 07:56:56;;;;;;;65.95;25.95;;;;;;;;;;4959431;28;20075;-81
2021/05/15 07:59:22;;;;;;;54.38;22.98;;;;;;;;;;4938620;29;20032;-82
2021/05/15 08:01:49;;;;;;;57.47;22.60;;;;;;;;;;4947069;28;20034;-84
2021/05/15 08:04:19;;;;;;;53.00;23.13;;;;;;;;;;4953185;28;20023;-82
2021/05/15 08:06:48;;;;;;;55.20;21.48;;;;;;;;;;4935263;28;20111;-82
2021/05/15 08:09:15;;;;;;;57.08;23.13;;;;;;;;;;4933846;29;20036;-82
2021/05/15 08:11:41;;;;;;;70.63;26.00;;;;;;;;;;4928863;29;20115;-82
2021/05/15 08:14:09;;;;;;;53.35;22.55;;;;;;;;;;4953664;28;20134;-82
2021/05/15 08:16:35;;;;;;;57.53;25.13;;;;;;;;;;4952351;29;20036;-82
2021/05/15 08:19:01;;;;;;;53.00;21.65;;;;;;;;;;4947317;29;20093;-82
2021/05/15 08:21:29;;;;;;;49.63;22.25;;;;;;;;;;4940309;29;20035;-83
2021/05/15 08:24:05;;;;;;;53.78;21.75;;;;;;;;;;4947475;29;20401;-88
2021/05/15 08:26:33;;;;;;;55.55;22.45;;;;;;;;;;4953920;28;20042;-81
2021/05/15 08:29:01;;;;;;;53.15;22.98;;;;;;;;;;4947226;29;20036;-86
2021/05/15 08:31:27;;;;;;;56.15;22.05;;;;;;;;;;4948954;28;20043;-80
2021/05/15 08:33:53;;;;;;;45.83;20.35;;;;;;;;;;4953239;28;20137;-81
2021/05/15 08:36:30;;;;;;;48.75;21.77;;;;;;;;;;4950658;29;20035;-81
2021/05/15 08:38:57;;;;;;;51.80;21.20;;;;;;;;;;4928565;29;20047;-80
2021/05/15 08:41:23;;;;;;;54.92;21.27;;;;;;;;;;4939219;29;20039;-81
2021/05/15 08:43:49;;;;;;;49.72;20.25;;;;;;;;;;4948579;28;20158;-81
2021/05/15 08:46:16;;;;;;;44.65;20.40;;;;;;;;;;4951363;28;20028;-80
2021/05/15 08:48:43;;;;;;;43.88;18.25;;;;;;;;;;4945177;29;20071;-81
2021/05/15 08:51:10;;;;;;;41.00;19.92;;;;;;;;;;4936886;29;20079;-83
2021/05/15 08:53:40;;;;;;;40.75;19.92;;;;;;;;;;4936563;29;20068;-81
2021/05/15 08:56:08;;;;;;;44.75;19.55;;;;;;;;;;4960942;28;20035;-84
2021/05/15 08:58:39;;;;;;;41.45;19.25;;;;;;;;;;4958992;28;20035;-82
2021/05/15 09:01:12;;;;;;;34.78;17.20;;;;;;;;;;4944495;28;20046;-79
2021/05/15 09:03:38;;;;;;;40.47;17.88;;;;;;;;;;4955114;28;20039;-82
2021/05/15 09:06:06;;;;;;;39.28;17.98;;;;;;;;;;4945297;28;20179;-80
2021/05/15 09:08:33;;;;;;;35.17;17.98;;;;;;;;;;4937424;29;20047;-82
2021/05/15 09:11:00;;;;;;;34.75;18.17;;;;;;;;;;4946280;29;20043;-78
2021/05/15 09:13:29;;;;;;;34.97;17.63;;;;;;;;;;4954288;28;20416;-79
2021/05/15 09:15:57;;;;;;;39.33;16.92;;;;;;;;;;4943621;28;20052;-80
2021/05/15 09:18:29;;;;;;;31.98;16.83;;;;;;;;;;4944022;29;20393;-81
2021/05/15 09:20:58;;;;;;;33.85;17.17;;;;;;;;;;4938893;29;20070;-80
2021/05/15 09:23:27;;;;;;;38.10;17.25;;;;;;;;;;4954290;28;20489;-80
2021/05/15 09:25:59;;;;;;;32.67;17.23;;;;;;;;;;4947246;28;20055;-80
2021/05/15 09:28:44;;;;;;;32.65;16.90;;;;;;;;;;4961232;28;20050;-81
2021/05/15 09:31:30;;;;;;;39.78;16.60;;;;;;;;;;4966393;28;20047;-81
2021/05/15 09:34:01;;;;;;;28.60;15.40;;;;;;;;;;4973666;28;20051;-81
2021/05/15 09:36:31;;;;;;;33.47;16.88;;;;;;;;;;4967704;28;20470;-81
2021/05/15 09:39:07;;;;;;;33.53;17.10;;;;;;;;;;4949661;29;20051;-81
2021/05/15 09:41:39;;;;;;;35.42;16.88;;;;;;;;;;4930995;29;20051;-81
2021/05/15 09:44:08;;;;;;;35.33;16.48;;;;;;;;;;4951462;28;20141;-82
2021/05/15 09:46:36;;;;;;;28.27;15.40;;;;;;;;;;4955585;28;20088;-82
2021/05/15 09:49:04;;;;;;;24.10;14.63;;;;;;;;;;4952656;28;20087;-81
2021/05/15 09:51:33;;;;;;;27.45;14.48;;;;;;;;;;4949341;28;20086;-82
2021/05/15 09:54:20;;;;;;;22.13;14.13;;;;;;;;;;4949043;28;20086;-82
2021/05/15 09:57:06;;;;;;;25.40;12.73;;;;;;;;;;4946437;28;20060;-82
2021/05/15 09:59:34;;;;;;;23.42;12.65;;;;;;;;;;4930433;29;20102;-82
2021/05/15 10:02:02;;;;;;;19.88;12.57;;;;;;;;;;4960418;28;20562;-82
2021/05/15 10:04:30;;;;;;;23.20;12.48;;;;;;;;;;4952232;28;20043;-81
2021/05/15 10:06:57;;;;;;;21.55;12.10;;;;;;;;;;4952211;28;20071;-81
2021/05/15 10:09:31;;;;;;;19.75;11.60;;;;;;;;;;4937052;29;20559;-83
2021/05/15 10:12:06;;;;;;;21.67;11.23;;;;;;;;;;4946593;28;20544;-83
2021/05/15 10:14:34;;;;;;;19.10;11.60;;;;;;;;;;4965141;28;20065;-84
2021/05/15 10:17:01;;;;;;;21.65;13.23;;;;;;;;;;4953510;28;20057;-83
2021/05/15 10:19:29;;;;;;;21.15;12.35;;;;;;;;;;4945070;28;20055;-85
2021/05/15 10:21:57;;;;;;;18.08;11.30;;;;;;;;;;4950355;28;20097;-84
2021/05/15 10:24:26;;;;;;;16.58;10.85;;;;;;;;;;4954645;29;20093;-84
2021/05/15 10:27:00;;;;;;;18.27;10.48;;;;;;;;;;4962804;28;20043;-83
2021/05/15 10:29:35;;;;;;;16.58;11.02;;;;;;;;;;4945132;28;20047;-84
2021/05/15 10:32:03;;;;;;;18.00;10.80;;;;;;;;;;4942232;29;20424;-83
2021/05/15 10:34:32;;;;;;;20.55;11.95;;;;;;;;;;4935035;29;20051;-83
2021/05/15 10:37:01;;;;;;;17.75;11.32;;;;;;;;;;4960990;28;20134;-83
2021/05/15 10:39:52;;;;;;;18.80;11.27;;;;;;;;;;4965059;28;20050;-83
2021/05/15 10:42:29;;;;;;;17.30;10.77;;;;;;;;;;4971013;28;20452;-83
2021/05/15 10:44:56;;;;;;;18.92;11.13;;;;;;;;;;4964837;28;20086;-83
2021/05/15 10:47:24;;;;;;;22.23;11.68;;;;;;;;;;4972950;28;20093;-83
2021/05/15 10:50:13;;;;;;;27.73;12.18;;;;;;;;;;4959735;28;20039;-82
2021/05/15 10:52:47;;;;;;;20.95;11.27;;;;;;;;;;4954305;28;20183;-82
2021/05/15 10:55:18;;;;;;;21.40;10.95;;;;;;;;;;4956856;28;20475;-83
2021/05/15 10:57:45;;;;;;;16.60;11.10;;;;;;;;;;4954104;28;20079;-83
2021/05/15 11:00:13;;;;;;;15.60;9.98;;;;;;;;;;4935762;28;20113;-82
2021/05/15 11:02:40;;;;;;;19.98;10.65;;;;;;;;;;4955147;28;20451;-83
2021/05/15 11:05:12;;;;;;;16.60;9.82;;;;;;;;;;4967532;28;20129;-83
2021/05/15 11:07:40;;;;;;;23.92;11.02;;;;;;;;;;4964049;28;20067;-83
2021/05/15 11:10:16;;;;;;;20.13;10.38;;;;;;;;;;4944922;28;20046;-83
2021/05/15 11:12:45;;;;;;;20.58;9.82;;;;;;;;;;4959048;28;20101;-82
2021/05/15 11:15:13;;;;;;;18.98;10.15;;;;;;;;;;4954434;28;20457;-82
2021/05/15 11:17:41;;;;;;;15.88;9.13;;;;;;;;;;4953739;28;20051;-83
2021/05/15 11:20:08;;;;;;;14.75;8.50;;;;;;;;;;4940924;28;20082;-83
2021/05/15 11:22:37;;;;;;;22.85;9.85;;;;;;;;;;4952317;29;20114;-84
2021/05/15 11:25:06;;;;;;;20.20;10.05;;;;;;;;;;4954921;28;20051;-84
2021/05/15 11:27:58;;;;;;;23.85;9.82;;;;;;;;;;4954017;28;20059;-84
2021/05/15 11:30:44;;;;;;;16.40;9.15;;;;;;;;;;4939446;28;20074;-83
2021/05/15 11:33:12;;;;;;;15.65;8.60;;;;;;;;;;4948891;28;20119;-85
2021/05/15 11:35:41;;;;;;;16.45;8.23;;;;;;;;;;4947129;28;20051;-85
2021/05/15 11:38:21;;;;;;;20.33;8.77;;;;;;;;;;4961329;28;20055;-85
2021/05/15 11:40:51;;;;;;;57.92;15.45;;;;;;;;;;4944445;28;20047;-85
2021/05/15 11:43:28;;;;;;;15.65;8.32;;;;;;;;;;4951223;28;20053;-85
2021/05/15 11:45:56;;;;;;;16.63;7.93;;;;;;;;;;4951307;29;20059;-88
2021/05/15 11:48:27;;;;;;;15.57;8.88;;;;;;;;;;4943104;28;20071;-82
2021/05/15 11:51:03;;;;;;;20.25;9.60;;;;;;;;;;4925690;29;20082;-82
2021/05/15 11:53:32;;;;;;;11.70;7.85;;;;;;;;;;4944122;29;20653;-83
2021/05/15 11:56:11;;;;;;;15.02;8.88;;;;;;;;;;4958099;28;20416;-85
2021/05/15 11:58:45;;;;;;;12.93;7.30;;;;;;;;;;4938120;28;20062;-84
2021/05/15 12:01:23;;;;;;;12.00;7.47;;;;;;;;;;4946143;28;20059;-82
2021/05/15 12:03:50;;;;;;;16.40;6.72;;;;;;;;;;4957081;28;20481;-81
2021/05/15 12:06:18;;;;;;;15.95;8.55;;;;;;;;;;4938850;29;20086;-81
2021/05/15 12:08:46;;;;;;;11.02;7.43;;;;;;;;;;4941164;29;20401;-81
2021/05/15 12:11:14;;;;;;;11.20;7.45;;;;;;;;;;4941824;28;20475;-82
2021/05/15 12:13:54;;;;;;;14.95;7.35;;;;;;;;;;4950389;28;20822;-80
2021/05/15 12:16:22;;;;;;;14.90;7.10;;;;;;;;;;4959959;28;20083;-80
2021/05/15 12:18:49;;;;;;;13.15;7.22;;;;;;;;;;4948571;29;20059;-79
2021/05/15 12:21:17;;;;;;;29.60;8.00;;;;;;;;;;4947802;29;20445;-81
2021/05/15 12:23:45;;;;;;;34.58;9.18;;;;;;;;;;4952760;29;20143;-82
2021/05/15 12:26:12;;;;;;;19.48;7.65;;;;;;;;;;4954873;28;20055;-80
2021/05/15 12:28:43;;;;;;;12.18;7.18;;;;;;;;;;4950682;28;20075;-80
2021/05/15 12:31:31;;;;;;;12.35;7.30;;;;;;;;;;4942187;29;20070;-80
2021/05/15 12:33:58;;;;;;;14.48;7.72;;;;;;;;;;4956658;28;20082;-80
2021/05/15 12:36:35;;;;;;;13.93;7.72;;;;;;;;;;4956775;28;20125;-81
2021/05/15 12:39:05;;;;;;;13.38;7.85;;;;;;;;;;4950636;28;20055;-79
2021/05/15 12:41:34;;;;;;;17.42;8.15;;;;;;;;;;4932182;29;20083;-80
2021/05/15 12:44:08;;;;;;;13.23;7.45;;;;;;;;;;4962003;28;20447;-80
2021/05/15 12:46:36;;;;;;;12.68;7.25;;;;;;;;;;4956932;28;20058;-80
2021/05/15 12:49:14;;;;;;;21.73;8.02;;;;;;;;;;4953656;28;20525;-81
2021/05/15 12:51:52;;;;;;;15.65;8.23;;;;;;;;;;4948024;28;20040;-81
2021/05/15 12:54:28;;;;;;;16.80;8.00;;;;;;;;;;4948333;28;20051;-80
2021/05/15 12:57:03;;;;;;;15.02;7.32;;;;;;;;;;4965223;28;20665;-80
2021/05/15 12:59:46;;;;;;;13.02;7.15;;;;;;;;;;4951433;28;20670;-80
2021/05/15 13:02:17;;;;;;;16.75;7.30;;;;;;;;;;4947455;28;20051;-79
2021/05/15 13:04:45;;;;;;;18.15;8.23;;;;;;;;;;4950651;28;20051;-79
2021/05/15 13:07:35;;;;;;;18.48;8.65;;;;;;;;;;4955210;28;20457;-79
2021/05/15 13:10:06;;;;;;;14.23;8.02;;;;;;;;;;4946364;28;20074;-79
2021/05/15 13:12:42;;;;;;;17.02;7.55;;;;;;;;;;4948421;28;20105;-79
2021/05/15 13:15:17;;;;;;;18.20;8.45;;;;;;;;;;4956250;29;20051;-79
2021/05/15 13:17:46;;;;;;;;;;;;;;;;;;4951699;29;20051;-80
2021/05/15 13:20:20;;;;;;;19.02;7.78;;;;;;;;;;4942407;28;19927;-80
2021/05/15 13:22:53;;;;;;;20.45;7.85;;;;;;;;;;4960813;28;20043;-80
2021/05/15 13:25:28;;;;;;;16.58;7.57;;;;;;;;;;4945630;29;20074;-79
2021/05/15 13:27:55;;;;;;;28.45;7.95;;;;;;;;;;4954010;29;20138;-79
2021/05/15 13:30:23;;;;;;;21.88;9.30;;;;;;;;;;4950324;28;20044;-80
2021/05/15 13:33:01;;;;;;;18.65;9.20;;;;;;;;;;4955157;29;20075;-79
2021/05/15 13:35:28;;;;;;;20.90;9.60;;;;;;;;;;4950817;28;20051;-79
2021/05/15 13:37:55;;;;;;;26.40;11.15;;;;;;;;;;4946480;28;20078;-77
2021/05/15 13:40:25;;;;;;;23.13;9.73;;;;;;;;;;4927850;28;20079;-79
2021/05/15 13:42:52;;;;;;;21.95;10.48;;;;;;;;;;4955791;28;20043;-79
2021/05/15 13:45:21;;;;;;;18.73;10.00;;;;;;;;;;4960901;28;20051;-79
2021/05/15 13:47:51;;;;;;;22.15;10.55;;;;;;;;;;4954602;28;20106;-80
2021/05/15 13:50:19;;;;;;;21.98;10.38;;;;;;;;;;4959422;23;20110;-81
2021/05/15 13:52:47;;;;;;;15.63;9.45;;;;;;;;;;4958879;28;20043;-80
2021/05/15 13:55:16;;;;;;;21.67;11.50;;;;;;;;;;4948912;28;20074;-81
2021/05/15 13:57:43;;;;;;;23.98;11.77;;;;;;;;;;4968790;28;20125;-81
2021/05/15 14:00:14;;;;;;;24.23;11.25;;;;;;;;;;4963710;28;20094;-81
2021/05/15 14:02:42;;;;;;;21.45;10.65;;;;;;;;;;4971127;28;20109;-81
2021/05/15 14:05:10;;;;;;;23.60;10.27;;;;;;;;;;4969194;28;20114;-81
2021/05/15 14:07:44;;;;;;;17.35;8.73;;;;;;;;;;4980804;28;20046;-81
2021/05/15 14:10:19;;;;;;;14.20;8.48;;;;;;;;;;4963540;28;20093;-81
2021/05/15 14:12:47;;;;;;;12.57;7.95;;;;;;;;;;4957696;28;20051;-81
2021/05/15 14:15:14;;;;;;;10.18;6.85;;;;;;;;;;4959349;28;20488;-81
2021/05/15 14:17:41;;;;;;;14.43;7.97;;;;;;;;;;4962244;28;20738;-81
2021/05/15 14:20:09;;;;;;;14.68;9.10;;;;;;;;;;4948999;28;20392;-82
2021/05/15 14:22:43;;;;;;;14.75;8.68;;;;;;;;;;4964869;28;20661;-81
2021/05/15 14:25:11;;;;;;;10.65;7.22;;;;;;;;;;4984549;28;20047;-81
2021/05/15 14:27:42;;;;;;;12.07;5.95;;;;;;;;;;4974291;28;20054;-81
2021/05/15 14:30:14;;;;;;;8.32;4.53;;;;;;;;;;4955992;28;20110;-81
2021/05/15 14:32:45;;;;;;;7.78;4.72;;;;;;;;;;4952483;29;20079;-82
2021/05/15 14:35:13;;;;;;;10.77;4.93;;;;;;;;;;4968084;28;20057;-81
2021/05/15 14:37:41;;;;;;;5.53;4.20;;;;;;;;;;4982849;28;20141;-81